sensor_id;sensor_type;location;lat;lon;timestamp;temperature;humidity
26053;DHT22;13826;51.186;4.450;2023-04-01T00:00:28;10.30;99.90
26053;DHT22;13826;51.186;4.450;2023-04-01T00:02:54;10.30;99.90
26053;DHT22;13826;51.186;4.450;2023-04-01T00:05:20;10.30;99.90
26053;DHT22;13826;51.186;4.450;2023-04-01T00:07:45;10.40;99.90
26053;DHT22;13826;51.186;4.450;2023-04-01T00:10:11;10.40;99.90
26053;DHT22;13826;51.186;4.450;2023-04-01T00:12:37;10.40;99.90
26053;DHT22;13826;51.186;4.450;2023-04-01T00:15:04;10.40;99.90
26053;DHT22;13826;51.186;4.450;2023-04-01T00:17:30;10.40;99.90
26053;DHT22;13826;51.186;4.450;2023-04-01T00:19:56;10.30;99.90
26053;DHT22;13826;51.186;4.450;2023-04-01T00:22:22;10.30;99.90
26053;DHT22;13826;51.186;4.450;2023-04-01T00:24:48;10.30;99.90
26053;DHT22;13826;51.186;4.450;2023-04-01T00:27:14;10.30;99.90
26053;DHT22;13826;51.186;4.450;2023-04-01T00:29:44;10.40;99.90
26053;DHT22;13826;51.186;4.450;2023-04-01T00:32:10;10.40;99.90
26053;DHT22;13826;51.186;4.450;2023-04-01T00:34:35;10.30;99.90
26053;DHT22;13826;51.186;4.450;2023-04-01T00:37:02;10.30;99.90
26053;DHT22;13826;51.186;4.450;2023-04-01T00:39:30;10.30;99.90
26053;DHT22;13826;51.186;4.450;2023-04-01T00:41:56;10.30;99.90
26053;DHT22;13826;51.186;4.450;2023-04-01T00:44:23;10.30;99.90
26053;DHT22;13826;51.186;4.450;2023-04-01T00:46:49;10.30;99.90
26053;DHT22;13826;51.186;4.450;2023-04-01T00:49:15;10.30;99.90
26053;DHT22;13826;51.186;4.450;2023-04-01T00:51:42;10.20;99.90
26053;DHT22;13826;51.186;4.450;2023-04-01T00:54:10;10.30;99.90
26053;DHT22;13826;51.186;4.450;2023-04-01T00:56:37;10.30;99.90
26053;DHT22;13826;51.186;4.450;2023-04-01T00:59:06;10.30;99.90
26053;DHT22;13826;51.186;4.450;2023-04-01T01:01:34;10.30;99.90
26053;DHT22;13826;51.186;4.450;2023-04-01T01:04:00;10.30;99.90
26053;DHT22;13826;51.186;4.450;2023-04-01T01:09:10;10.30;99.90
26053;DHT22;13826;51.186;4.450;2023-04-01T01:12:21;10.30;99.90
26053;DHT22;13826;51.186;4.450;2023-04-01T01:17:04;10.30;99.90
26053;DHT22;13826;51.186;4.450;2023-04-01T01:22:36;10.40;99.90
26053;DHT22;13826;51.186;4.450;2023-04-01T01:25:29;10.30;99.90
26053;DHT22;13826;51.186;4.450;2023-04-01T01:27:54;10.40;99.90
26053;DHT22;13826;51.186;4.450;2023-04-01T01:33:09;10.30;99.90
26053;DHT22;13826;51.186;4.450;2023-04-01T01:35:52;10.30;99.90
26053;DHT22;13826;51.186;4.450;2023-04-01T01:38:21;10.40;99.90
26053;DHT22;13826;51.186;4.450;2023-04-01T01:40:48;10.40;99.90
26053;DHT22;13826;51.186;4.450;2023-04-01T01:43:17;10.30;99.90
26053;DHT22;13826;51.186;4.450;2023-04-01T01:45:46;10.30;99.90
26053;DHT22;13826;51.186;4.450;2023-04-01T01:48:13;10.20;99.90
26053;DHT22;13826;51.186;4.450;2023-04-01T01:50:40;10.30;99.90
26053;DHT22;13826;51.186;4.450;2023-04-01T01:53:07;10.20;99.90
26053;DHT22;13826;51.186;4.450;2023-04-01T01:55:34;10.20;99.90
26053;DHT22;13826;51.186;4.450;2023-04-01T01:58:02;10.30;99.90
26053;DHT22;13826;51.186;4.450;2023-04-01T02:00:30;10.20;99.90
26053;DHT22;13826;51.186;4.450;2023-04-01T02:02:55;10.20;99.90
26053;DHT22;13826;51.186;4.450;2023-04-01T02:05:23;10.10;99.90
26053;DHT22;13826;51.186;4.450;2023-04-01T02:07:52;10.20;99.90
26053;DHT22;13826;51.186;4.450;2023-04-01T02:10:21;10.30;99.90
26053;DHT22;13826;51.186;4.450;2023-04-01T02:12:49;10.20;99.90
26053;DHT22;13826;51.186;4.450;2023-04-01T02:15:16;10.10;99.90
26053;DHT22;13826;51.186;4.450;2023-04-01T02:17:43;10.10;99.90
26053;DHT22;13826;51.186;4.450;2023-04-01T02:20:17;10.10;99.90
26053;DHT22;13826;51.186;4.450;2023-04-01T02:22:47;10.00;99.90
26053;DHT22;13826;51.186;4.450;2023-04-01T02:25:14;10.00;99.90
26053;DHT22;13826;51.186;4.450;2023-04-01T02:27:41;10.00;99.90
26053;DHT22;13826;51.186;4.450;2023-04-01T02:30:08;10.00;99.90
26053;DHT22;13826;51.186;4.450;2023-04-01T02:32:34;10.00;99.90
26053;DHT22;13826;51.186;4.450;2023-04-01T02:35:00;10.00;99.90
26053;DHT22;13826;51.186;4.450;2023-04-01T02:37:31;10.00;99.90
26053;DHT22;13826;51.186;4.450;2023-04-01T02:40:03;10.00;99.90
26053;DHT22;13826;51.186;4.450;2023-04-01T02:42:30;9.90;99.90
26053;DHT22;13826;51.186;4.450;2023-04-01T02:44:55;10.00;99.90
26053;DHT22;13826;51.186;4.450;2023-04-01T02:47:21;10.00;99.90
26053;DHT22;13826;51.186;4.450;2023-04-01T02:49:46;10.00;99.90
26053;DHT22;13826;51.186;4.450;2023-04-01T02:52:12;10.10;99.90
26053;DHT22;13826;51.186;4.450;2023-04-01T02:54:38;10.00;99.90
26053;DHT22;13826;51.186;4.450;2023-04-01T02:57:03;9.90;99.90
26053;DHT22;13826;51.186;4.450;2023-04-01T02:59:29;9.90;99.90
26053;DHT22;13826;51.186;4.450;2023-04-01T03:01:54;9.80;99.90
26053;DHT22;13826;51.186;4.450;2023-04-01T03:04:20;9.80;99.90
26053;DHT22;13826;51.186;4.450;2023-04-01T03:06:45;9.80;99.90
26053;DHT22;13826;51.186;4.450;2023-04-01T03:09:11;9.70;99.90
26053;DHT22;13826;51.186;4.450;2023-04-01T03:11:36;9.80;99.90
26053;DHT22;13826;51.186;4.450;2023-04-01T03:14:02;9.70;99.90
26053;DHT22;13826;51.186;4.450;2023-04-01T03:16:27;9.80;99.90
26053;DHT22;13826;51.186;4.450;2023-04-01T03:18:53;9.80;99.90
26053;DHT22;13826;51.186;4.450;2023-04-01T03:21:24;9.80;99.90
26053;DHT22;13826;51.186;4.450;2023-04-01T03:23:50;9.90;99.90
26053;DHT22;13826;51.186;4.450;2023-04-01T03:26:16;9.80;99.90
26053;DHT22;13826;51.186;4.450;2023-04-01T03:28:41;9.80;99.90
26053;DHT22;13826;51.186;4.450;2023-04-01T03:31:07;9.80;99.90
26053;DHT22;13826;51.186;4.450;2023-04-01T03:33:32;9.80;99.90
26053;DHT22;13826;51.186;4.450;2023-04-01T03:36:04;9.80;99.90
26053;DHT22;13826;51.186;4.450;2023-04-01T03:38:32;9.80;99.90
26053;DHT22;13826;51.186;4.450;2023-04-01T03:40:58;9.80;99.90
26053;DHT22;13826;51.186;4.450;2023-04-01T03:43:23;9.80;99.90
26053;DHT22;13826;51.186;4.450;2023-04-01T03:45:49;9.80;99.90
26053;DHT22;13826;51.186;4.450;2023-04-01T03:48:15;9.80;99.90
26053;DHT22;13826;51.186;4.450;2023-04-01T03:50:41;9.80;99.90
26053;DHT22;13826;51.186;4.450;2023-04-01T03:53:07;9.80;99.90
26053;DHT22;13826;51.186;4.450;2023-04-01T03:55:32;9.80;99.90
26053;DHT22;13826;51.186;4.450;2023-04-01T03:57:58;9.80;99.90
26053;DHT22;13826;51.186;4.450;2023-04-01T04:00:23;9.70;99.90
26053;DHT22;13826;51.186;4.450;2023-04-01T04:02:49;9.80;99.90
26053;DHT22;13826;51.186;4.450;2023-04-01T04:05:14;9.80;99.90
26053;DHT22;13826;51.186;4.450;2023-04-01T04:07:40;9.80;99.90
26053;DHT22;13826;51.186;4.450;2023-04-01T04:10:06;9.70;99.90
26053;DHT22;13826;51.186;4.450;2023-04-01T04:12:32;9.70;99.90
26053;DHT22;13826;51.186;4.450;2023-04-01T04:14:57;9.70;99.90
26053;DHT22;13826;51.186;4.450;2023-04-01T04:17:23;9.70;99.90
26053;DHT22;13826;51.186;4.450;2023-04-01T04:19:48;9.70;99.90
26053;DHT22;13826;51.186;4.450;2023-04-01T04:22:14;9.70;99.90
26053;DHT22;13826;51.186;4.450;2023-04-01T04:24:39;9.70;99.90
26053;DHT22;13826;51.186;4.450;2023-04-01T04:27:05;9.70;99.90
26053;DHT22;13826;51.186;4.450;2023-04-01T04:29:30;9.60;99.90
26053;DHT22;13826;51.186;4.450;2023-04-01T04:31:56;9.70;99.90
26053;DHT22;13826;51.186;4.450;2023-04-01T04:34:21;9.80;99.90
26053;DHT22;13826;51.186;4.450;2023-04-01T04:36:47;9.80;99.90
26053;DHT22;13826;51.186;4.450;2023-04-01T04:39:13;9.90;99.90
26053;DHT22;13826;51.186;4.450;2023-04-01T04:41:39;9.90;99.90
26053;DHT22;13826;51.186;4.450;2023-04-01T04:44:05;9.90;99.90
26053;DHT22;13826;51.186;4.450;2023-04-01T04:46:30;9.80;99.90
26053;DHT22;13826;51.186;4.450;2023-04-01T04:48:56;9.70;99.90
26053;DHT22;13826;51.186;4.450;2023-04-01T04:51:21;9.70;99.90
26053;DHT22;13826;51.186;4.450;2023-04-01T04:53:47;9.70;99.90
26053;DHT22;13826;51.186;4.450;2023-04-01T04:56:16;9.60;99.90
26053;DHT22;13826;51.186;4.450;2023-04-01T04:58:42;9.60;99.90
26053;DHT22;13826;51.186;4.450;2023-04-01T05:01:09;9.70;99.90
26053;DHT22;13826;51.186;4.450;2023-04-01T05:03:34;9.60;99.90
26053;DHT22;13826;51.186;4.450;2023-04-01T05:06:00;9.60;99.90
26053;DHT22;13826;51.186;4.450;2023-04-01T05:08:25;9.50;99.90
26053;DHT22;13826;51.186;4.450;2023-04-01T05:10:51;9.60;99.90
26053;DHT22;13826;51.186;4.450;2023-04-01T05:13:16;9.50;99.90
26053;DHT22;13826;51.186;4.450;2023-04-01T05:15:42;9.50;99.90
26053;DHT22;13826;51.186;4.450;2023-04-01T05:18:08;9.60;99.90
26053;DHT22;13826;51.186;4.450;2023-04-01T05:20:33;9.60;99.90
26053;DHT22;13826;51.186;4.450;2023-04-01T05:22:59;9.60;99.90
26053;DHT22;13826;51.186;4.450;2023-04-01T05:25:25;9.60;99.90
26053;DHT22;13826;51.186;4.450;2023-04-01T05:27:50;9.60;99.90
26053;DHT22;13826;51.186;4.450;2023-04-01T05:30:16;9.40;99.90
26053;DHT22;13826;51.186;4.450;2023-04-01T05:32:42;9.40;99.90
26053;DHT22;13826;51.186;4.450;2023-04-01T05:35:08;9.50;99.90
26053;DHT22;13826;51.186;4.450;2023-04-01T05:37:34;9.50;99.90
26053;DHT22;13826;51.186;4.450;2023-04-01T05:40:00;9.50;99.90
26053;DHT22;13826;51.186;4.450;2023-04-01T05:42:25;9.50;99.90
26053;DHT22;13826;51.186;4.450;2023-04-01T05:44:51;9.50;99.90
26053;DHT22;13826;51.186;4.450;2023-04-01T05:47:16;9.50;99.90
26053;DHT22;13826;51.186;4.450;2023-04-01T05:49:42;9.50;99.90
26053;DHT22;13826;51.186;4.450;2023-04-01T05:52:07;9.50;99.90
26053;DHT22;13826;51.186;4.450;2023-04-01T05:54:33;9.60;99.90
26053;DHT22;13826;51.186;4.450;2023-04-01T05:56:59;9.60;99.90
26053;DHT22;13826;51.186;4.450;2023-04-01T05:59:24;9.50;99.90
26053;DHT22;13826;51.186;4.450;2023-04-01T06:01:50;9.40;99.90
26053;DHT22;13826;51.186;4.450;2023-04-01T06:04:16;9.40;99.90
26053;DHT22;13826;51.186;4.450;2023-04-01T06:06:42;9.40;99.90
26053;DHT22;13826;51.186;4.450;2023-04-01T06:09:27;9.40;99.90
26053;DHT22;13826;51.186;4.450;2023-04-01T06:40:40;9.50;99.90
26053;DHT22;13826;51.186;4.450;2023-04-01T06:45:48;9.50;99.90
26053;DHT22;13826;51.186;4.450;2023-04-01T06:48:22;9.50;99.90
26053;DHT22;13826;51.186;4.450;2023-04-01T06:56:12;9.50;99.90
26053;DHT22;13826;51.186;4.450;2023-04-01T07:01:06;9.70;99.90
26053;DHT22;13826;51.186;4.450;2023-04-01T07:03:34;9.70;99.90
26053;DHT22;13826;51.186;4.450;2023-04-01T07:06:05;9.70;99.90
26053;DHT22;13826;51.186;4.450;2023-04-01T07:08:31;9.50;99.90
26053;DHT22;13826;51.186;4.450;2023-04-01T07:11:03;9.60;99.90
26053;DHT22;13826;51.186;4.450;2023-04-01T07:18:28;9.60;99.90
26053;DHT22;13826;51.186;4.450;2023-04-01T07:20:55;9.60;99.90
26053;DHT22;13826;51.186;4.450;2023-04-01T07:23:25;9.60;99.90
26053;DHT22;13826;51.186;4.450;2023-04-01T07:26:04;9.70;99.90
26053;DHT22;13826;51.186;4.450;2023-04-01T07:28:32;9.70;99.90
26053;DHT22;13826;51.186;4.450;2023-04-01T07:36:27;9.80;99.90
26053;DHT22;13826;51.186;4.450;2023-04-01T07:38:57;9.80;99.90
26053;DHT22;13826;51.186;4.450;2023-04-01T07:41:32;9.90;99.90
26053;DHT22;13826;51.186;4.450;2023-04-01T07:49:04;9.80;99.90
26053;DHT22;13826;51.186;4.450;2023-04-01T07:51:35;9.80;99.90
26053;DHT22;13826;51.186;4.450;2023-04-01T07:56:43;9.80;99.90
26053;DHT22;13826;51.186;4.450;2023-04-01T08:19:15;10.10;99.90
26053;DHT22;13826;51.186;4.450;2023-04-01T08:21:42;10.10;99.90
26053;DHT22;13826;51.186;4.450;2023-04-01T08:26:47;10.20;99.90
26053;DHT22;13826;51.186;4.450;2023-04-01T08:29:16;10.20;99.90
26053;DHT22;13826;51.186;4.450;2023-04-01T08:34:13;10.20;99.90
26053;DHT22;13826;51.186;4.450;2023-04-01T08:36:42;10.20;99.90
26053;DHT22;13826;51.186;4.450;2023-04-01T08:39:29;10.20;99.90
26053;DHT22;13826;51.186;4.450;2023-04-01T08:49:56;10.40;99.90
26053;DHT22;13826;51.186;4.450;2023-04-01T08:52:21;10.50;99.90
26053;DHT22;13826;51.186;4.450;2023-04-01T08:57:39;10.60;99.90
26053;DHT22;13826;51.186;4.450;2023-04-01T09:05:26;10.50;99.90
26053;DHT22;13826;51.186;4.450;2023-04-01T09:10:46;10.60;99.90
26053;DHT22;13826;51.186;4.450;2023-04-01T09:18:18;10.70;99.90
26053;DHT22;13826;51.186;4.450;2023-04-01T09:36:45;10.70;99.90
26053;DHT22;13826;51.186;4.450;2023-04-01T09:44:28;11.20;99.90
26053;DHT22;13826;51.186;4.450;2023-04-01T09:59:47;10.80;99.90
26053;DHT22;13826;51.186;4.450;2023-04-01T10:13:11;10.80;99.90
26053;DHT22;13826;51.186;4.450;2023-04-01T10:23:24;11.00;99.90
26053;DHT22;13826;51.186;4.450;2023-04-01T10:31:06;10.90;99.90
26053;DHT22;13826;51.186;4.450;2023-04-01T10:54:49;11.30;99.90
26053;DHT22;13826;51.186;4.450;2023-04-01T11:05:23;11.20;99.90
26053;DHT22;13826;51.186;4.450;2023-04-01T11:25:55;10.80;99.90
26053;DHT22;13826;51.186;4.450;2023-04-01T11:33:45;10.40;99.90
26053;DHT22;13826;51.186;4.450;2023-04-01T11:36:25;10.60;99.90
26053;DHT22;13826;51.186;4.450;2023-04-01T11:39:00;10.70;99.90
26053;DHT22;13826;51.186;4.450;2023-04-01T11:41:42;10.70;99.90
26053;DHT22;13826;51.186;4.450;2023-04-01T11:44:18;10.60;99.90
26053;DHT22;13826;51.186;4.450;2023-04-01T11:47:03;10.60;99.90
26053;DHT22;13826;51.186;4.450;2023-04-01T11:52:08;10.80;99.90
26053;DHT22;13826;51.186;4.450;2023-04-01T12:10:38;11.30;99.90
26053;DHT22;13826;51.186;4.450;2023-04-01T12:13:14;11.30;99.90
26053;DHT22;13826;51.186;4.450;2023-04-01T12:23:17;11.70;99.90
26053;DHT22;13826;51.186;4.450;2023-04-01T12:39:03;11.90;99.90
26053;DHT22;13826;51.186;4.450;2023-04-01T12:41:41;11.90;99.90
26053;DHT22;13826;51.186;4.450;2023-04-01T12:44:29;12.30;99.90
26053;DHT22;13826;51.186;4.450;2023-04-01T12:47:06;12.20;99.90
26053;DHT22;13826;51.186;4.450;2023-04-01T12:49:45;12.20;99.90
26053;DHT22;13826;51.186;4.450;2023-04-01T12:54:46;12.20;99.90
26053;DHT22;13826;51.186;4.450;2023-04-01T12:59:50;12.20;99.90
26053;DHT22;13826;51.186;4.450;2023-04-01T13:02:24;12.30;99.90
26053;DHT22;13826;51.186;4.450;2023-04-01T13:05:00;12.20;99.90
26053;DHT22;13826;51.186;4.450;2023-04-01T13:10:07;12.30;99.90
26053;DHT22;13826;51.186;4.450;2023-04-01T13:15:14;12.00;99.90
26053;DHT22;13826;51.186;4.450;2023-04-01T13:31:00;11.10;99.90
26053;DHT22;13826;51.186;4.450;2023-04-01T13:33:33;11.20;99.90
26053;DHT22;13826;51.186;4.450;2023-04-01T13:41:00;11.50;99.90
26053;DHT22;13826;51.186;4.450;2023-04-01T13:43:32;11.60;99.90
26053;DHT22;13826;51.186;4.450;2023-04-01T13:56:08;11.30;99.90
26053;DHT22;13826;51.186;4.450;2023-04-01T13:58:40;11.30;99.90
26053;DHT22;13826;51.186;4.450;2023-04-01T14:01:27;11.30;99.90
26053;DHT22;13826;51.186;4.450;2023-04-01T14:11:56;11.40;99.90
26053;DHT22;13826;51.186;4.450;2023-04-01T14:22:22;11.70;99.90
26053;DHT22;13826;51.186;4.450;2023-04-01T14:25:00;11.80;99.90
26053;DHT22;13826;51.186;4.450;2023-04-01T14:33:03;11.90;99.90
26053;DHT22;13826;51.186;4.450;2023-04-01T14:38:01;11.60;99.90
26053;DHT22;13826;51.186;4.450;2023-04-01T14:51:10;11.60;99.90
26053;DHT22;13826;51.186;4.450;2023-04-01T14:53:44;11.70;99.90
26053;DHT22;13826;51.186;4.450;2023-04-01T14:56:29;11.60;99.90
26053;DHT22;13826;51.186;4.450;2023-04-01T14:59:00;11.50;99.90
26053;DHT22;13826;51.186;4.450;2023-04-01T15:01:31;11.40;99.90
26053;DHT22;13826;51.186;4.450;2023-04-01T15:04:09;11.30;99.90
26053;DHT22;13826;51.186;4.450;2023-04-01T15:06:59;11.20;99.90
26053;DHT22;13826;51.186;4.450;2023-04-01T15:19:42;10.80;99.90
26053;DHT22;13826;51.186;4.450;2023-04-01T15:27:15;10.80;99.90
26053;DHT22;13826;51.186;4.450;2023-04-01T15:32:26;10.80;99.90
26053;DHT22;13826;51.186;4.450;2023-04-01T15:35:38;10.80;99.90
26053;DHT22;13826;51.186;4.450;2023-04-01T15:38:06;10.60;99.90
26053;DHT22;13826;51.186;4.450;2023-04-01T15:45:58;10.50;99.90
26053;DHT22;13826;51.186;4.450;2023-04-01T15:48:43;10.40;99.90
26053;DHT22;13826;51.186;4.450;2023-04-01T15:51:22;10.40;99.90
26053;DHT22;13826;51.186;4.450;2023-04-01T15:54:00;10.40;99.90
26053;DHT22;13826;51.186;4.450;2023-04-01T15:56:44;10.40;99.90
26053;DHT22;13826;51.186;4.450;2023-04-01T15:59:32;10.40;99.90
26053;DHT22;13826;51.186;4.450;2023-04-01T16:04:47;10.20;99.90
26053;DHT22;13826;51.186;4.450;2023-04-01T16:29:48;10.30;99.90
26053;DHT22;13826;51.186;4.450;2023-04-01T16:35:14;10.20;99.90
26053;DHT22;13826;51.186;4.450;2023-04-01T16:37:52;10.20;99.90
26053;DHT22;13826;51.186;4.450;2023-04-01T16:40:26;10.10;99.90
26053;DHT22;13826;51.186;4.450;2023-04-01T16:45:59;10.30;99.90
26053;DHT22;13826;51.186;4.450;2023-04-01T16:51:16;10.30;99.90
26053;DHT22;13826;51.186;4.450;2023-04-01T16:53:45;10.20;99.90
26053;DHT22;13826;51.186;4.450;2023-04-01T16:56:16;10.30;99.90
26053;DHT22;13826;51.186;4.450;2023-04-01T17:01:28;10.40;99.90
26053;DHT22;13826;51.186;4.450;2023-04-01T17:03:57;10.40;99.90
26053;DHT22;13826;51.186;4.450;2023-04-01T17:06:34;10.20;99.90
26053;DHT22;13826;51.186;4.450;2023-04-01T17:09:49;10.20;99.90
26053;DHT22;13826;51.186;4.450;2023-04-01T17:14:23;10.40;99.90
26053;DHT22;13826;51.186;4.450;2023-04-01T17:22:40;10.30;99.90
26053;DHT22;13826;51.186;4.450;2023-04-01T17:27:51;10.40;99.90
26053;DHT22;13826;51.186;4.450;2023-04-01T17:33:11;10.50;99.90
26053;DHT22;13826;51.186;4.450;2023-04-01T17:35:58;10.50;99.90
26053;DHT22;13826;51.186;4.450;2023-04-01T17:41:14;10.40;99.90
26053;DHT22;13826;51.186;4.450;2023-04-01T17:43:52;10.50;99.90
26053;DHT22;13826;51.186;4.450;2023-04-01T17:46:23;10.40;99.90
26053;DHT22;13826;51.186;4.450;2023-04-01T17:51:39;10.40;99.90
26053;DHT22;13826;51.186;4.450;2023-04-01T18:02:24;10.50;99.90
26053;DHT22;13826;51.186;4.450;2023-04-01T18:07:48;10.60;99.90
26053;DHT22;13826;51.186;4.450;2023-04-01T18:15:46;10.50;99.90
26053;DHT22;13826;51.186;4.450;2023-04-01T18:23:24;10.50;99.90
26053;DHT22;13826;51.186;4.450;2023-04-01T18:26:01;10.60;99.90
26053;DHT22;13826;51.186;4.450;2023-04-01T18:33:36;10.50;99.90
26053;DHT22;13826;51.186;4.450;2023-04-01T18:36:13;10.60;99.90
26053;DHT22;13826;51.186;4.450;2023-04-01T18:38:44;10.70;99.90
26053;DHT22;13826;51.186;4.450;2023-04-01T18:41:15;10.70;99.90
26053;DHT22;13826;51.186;4.450;2023-04-01T18:46:12;10.60;99.90
26053;DHT22;13826;51.186;4.450;2023-04-01T18:48:52;10.50;99.90
26053;DHT22;13826;51.186;4.450;2023-04-01T18:51:26;10.60;99.90
26053;DHT22;13826;51.186;4.450;2023-04-01T18:54:11;10.60;99.90
26053;DHT22;13826;51.186;4.450;2023-04-01T18:56:37;10.50;99.90
26053;DHT22;13826;51.186;4.450;2023-04-01T18:59:21;10.50;99.90
26053;DHT22;13826;51.186;4.450;2023-04-01T19:02:02;10.50;99.90
26053;DHT22;13826;51.186;4.450;2023-04-01T19:04:32;10.60;99.90
26053;DHT22;13826;51.186;4.450;2023-04-01T19:07:00;10.60;99.90
26053;DHT22;13826;51.186;4.450;2023-04-01T19:09:31;10.70;99.90
26053;DHT22;13826;51.186;4.450;2023-04-01T19:12:10;10.70;99.90
26053;DHT22;13826;51.186;4.450;2023-04-01T19:25:54;10.90;99.90
26053;DHT22;13826;51.186;4.450;2023-04-01T19:28:26;11.00;99.90
26053;DHT22;13826;51.186;4.450;2023-04-01T19:30:59;10.80;99.90
26053;DHT22;13826;51.186;4.450;2023-04-01T19:36:00;10.70;99.90
26053;DHT22;13826;51.186;4.450;2023-04-01T19:45:57;10.70;99.90
26053;DHT22;13826;51.186;4.450;2023-04-01T19:51:08;10.70;99.90
26053;DHT22;13826;51.186;4.450;2023-04-01T19:56:21;10.70;99.90
26053;DHT22;13826;51.186;4.450;2023-04-01T19:58:58;10.70;99.90
26053;DHT22;13826;51.186;4.450;2023-04-01T20:04:08;10.70;99.90
26053;DHT22;13826;51.186;4.450;2023-04-01T20:09:11;10.60;99.90
26053;DHT22;13826;51.186;4.450;2023-04-01T20:11:55;10.60;99.90
26053;DHT22;13826;51.186;4.450;2023-04-01T20:20:15;10.60;99.90
26053;DHT22;13826;51.186;4.450;2023-04-01T20:22:34;10.60;99.90
26053;DHT22;13826;51.186;4.450;2023-04-01T20:25:46;10.60;99.90
26053;DHT22;13826;51.186;4.450;2023-04-01T20:27:55;10.60;99.90
26053;DHT22;13826;51.186;4.450;2023-04-01T20:35:35;10.50;99.90
26053;DHT22;13826;51.186;4.450;2023-04-01T20:40:41;10.40;99.90
26053;DHT22;13826;51.186;4.450;2023-04-01T20:45:42;10.60;99.90
26053;DHT22;13826;51.186;4.450;2023-04-01T20:48:21;10.50;99.90
26053;DHT22;13826;51.186;4.450;2023-04-01T20:50:51;10.40;99.90
26053;DHT22;13826;51.186;4.450;2023-04-01T21:08:49;10.30;99.90
26053;DHT22;13826;51.186;4.450;2023-04-01T21:11:22;10.30;99.90
26053;DHT22;13826;51.186;4.450;2023-04-01T21:16:35;10.20;99.90
26053;DHT22;13826;51.186;4.450;2023-04-01T21:19:11;10.20;99.90
26053;DHT22;13826;51.186;4.450;2023-04-01T21:24:29;10.20;99.90
26053;DHT22;13826;51.186;4.450;2023-04-01T21:29:27;10.20;99.90
26053;DHT22;13826;51.186;4.450;2023-04-01T21:37:22;10.20;99.90
26053;DHT22;13826;51.186;4.450;2023-04-01T21:42:35;10.20;99.90
26053;DHT22;13826;51.186;4.450;2023-04-01T21:58:20;10.00;99.90
26053;DHT22;13826;51.186;4.450;2023-04-01T22:10:55;10.10;99.90
26053;DHT22;13826;51.186;4.450;2023-04-01T22:15:57;10.00;99.90
26053;DHT22;13826;51.186;4.450;2023-04-01T22:18:33;10.00;99.90
26053;DHT22;13826;51.186;4.450;2023-04-01T22:28:44;9.80;99.90
26053;DHT22;13826;51.186;4.450;2023-04-01T22:31:12;9.80;99.90
26053;DHT22;13826;51.186;4.450;2023-04-01T22:36:30;9.80;99.90
26053;DHT22;13826;51.186;4.450;2023-04-01T22:41:46;9.80;99.90
26053;DHT22;13826;51.186;4.450;2023-04-01T22:44:20;9.80;99.90
26053;DHT22;13826;51.186;4.450;2023-04-01T22:47:07;9.80;99.90
26053;DHT22;13826;51.186;4.450;2023-04-01T22:49:40;9.80;99.90
26053;DHT22;13826;51.186;4.450;2023-04-01T22:52:16;9.70;99.90
26053;DHT22;13826;51.186;4.450;2023-04-01T22:54:45;9.70;99.90
26053;DHT22;13826;51.186;4.450;2023-04-01T22:59:48;9.60;99.90
26053;DHT22;13826;51.186;4.450;2023-04-01T23:02:16;9.60;99.90
26053;DHT22;13826;51.186;4.450;2023-04-01T23:04:45;9.50;99.90
26053;DHT22;13826;51.186;4.450;2023-04-01T23:09:47;9.60;99.90
26053;DHT22;13826;51.186;4.450;2023-04-01T23:12:14;9.50;99.90
26053;DHT22;13826;51.186;4.450;2023-04-01T23:17:22;9.60;99.90
26053;DHT22;13826;51.186;4.450;2023-04-01T23:22:26;9.60;99.90
26053;DHT22;13826;51.186;4.450;2023-04-01T23:27:40;9.50;99.90
26053;DHT22;13826;51.186;4.450;2023-04-01T23:32:53;9.50;99.90
26053;DHT22;13826;51.186;4.450;2023-04-01T23:35:18;9.40;99.90
26053;DHT22;13826;51.186;4.450;2023-04-01T23:37:44;9.30;99.90
26053;DHT22;13826;51.186;4.450;2023-04-01T23:40:12;9.20;99.90
26053;DHT22;13826;51.186;4.450;2023-04-01T23:42:39;9.20;99.90
26053;DHT22;13826;51.186;4.450;2023-04-01T23:45:11;9.10;99.90
26053;DHT22;13826;51.186;4.450;2023-04-01T23:47:38;9.10;99.90
26053;DHT22;13826;51.186;4.450;2023-04-01T23:52:31;9.10;99.90
